createdAt,value
2019-02-24T00:03:00.072Z,4.27
2019-02-24T00:07:05.226Z,3.92
2019-02-24T00:11:10.442Z,3.83
2019-02-24T00:15:15.794Z,3.65
2019-02-24T00:19:20.925Z,3.80
2019-02-24T00:23:26.157Z,3.72
2019-02-24T00:27:31.327Z,3.82
2019-02-24T00:31:36.483Z,4.02
2019-02-24T00:35:41.675Z,4.00
2019-02-24T00:39:46.796Z,4.00
2019-02-24T00:43:51.947Z,3.92
2019-02-24T00:47:57.285Z,3.88
2019-02-24T00:52:02.663Z,3.87
2019-02-24T00:56:07.776Z,3.90
2019-02-24T01:00:12.913Z,3.87
2019-02-24T01:04:19.256Z,3.89
2019-02-24T01:08:24.401Z,3.94
2019-02-24T01:12:29.500Z,3.90
2019-02-24T01:16:34.626Z,3.91
2019-02-24T01:20:39.824Z,3.81
2019-02-24T01:24:44.941Z,3.86
2019-02-24T01:28:50.122Z,3.75
2019-02-24T01:32:55.283Z,3.68
2019-02-24T01:37:00.351Z,3.50
2019-02-24T01:41:05.521Z,3.52
2019-02-24T01:45:10.710Z,3.57
2019-02-24T01:49:16.135Z,3.52
2019-02-24T01:53:21.198Z,3.34
2019-02-24T01:57:27.795Z,3.31
2019-02-24T02:01:32.935Z,3.28
2019-02-24T02:05:38.075Z,3.23
2019-02-24T02:09:43.219Z,3.44
2019-02-24T02:13:50.040Z,3.35
2019-02-24T02:17:55.198Z,3.33
2019-02-24T02:22:00.347Z,3.36
2019-02-24T02:26:05.540Z,3.28
2019-02-24T02:30:11.175Z,3.31
2019-02-24T02:34:17.303Z,3.28
2019-02-24T02:38:22.424Z,3.23
2019-02-24T02:42:30.701Z,3.19
2019-02-24T02:46:38.930Z,3.18
2019-02-24T02:50:44.021Z,3.09
2019-02-24T02:54:49.097Z,3.10
2019-02-24T02:58:55.079Z,3.02
2019-02-24T03:03:01.396Z,2.98
2019-02-24T03:07:26.280Z,2.96
2019-02-24T03:11:31.371Z,2.92
2019-02-24T03:15:36.517Z,2.89
2019-02-24T03:19:41.669Z,3.01
2019-02-24T03:23:48.934Z,3.01
2019-02-24T03:27:56.950Z,3.06
2019-02-24T03:32:02.338Z,3.01
2019-02-24T03:36:07.589Z,3.07
2019-02-24T03:40:12.815Z,3.17
2019-02-24T03:44:18.026Z,3.12
2019-02-24T03:48:23.256Z,3.05
2019-02-24T03:52:28.404Z,3.04
2019-02-24T04:00:46.367Z,3.08
2019-02-24T04:04:51.509Z,2.93
2019-02-24T04:08:56.592Z,2.95
2019-02-24T04:13:01.688Z,2.89
2019-02-24T04:17:18.380Z,2.77
2019-02-24T04:21:23.703Z,2.82
2019-02-24T04:29:45.328Z,2.83
2019-02-24T04:33:50.466Z,2.80
2019-02-24T04:37:55.539Z,2.79
2019-02-24T04:42:00.951Z,2.76
2019-02-24T04:46:06.918Z,2.71
2019-02-24T04:50:12.178Z,2.67
2019-02-24T04:59:01.065Z,2.48
2019-02-24T05:03:06.230Z,2.57
2019-02-24T05:07:11.599Z,2.53
2019-02-24T05:15:51.506Z,2.49
2019-02-24T05:20:07.932Z,2.45
2019-02-24T05:24:13.078Z,2.42
2019-02-24T05:28:18.324Z,2.44
2019-02-24T05:32:23.500Z,2.40
2019-02-24T05:36:28.980Z,2.45
2019-02-24T05:40:35.684Z,2.40
2019-02-24T05:45:27.937Z,2.38
2019-02-24T05:49:52.160Z,2.50
2019-02-24T05:53:57.236Z,2.45
2019-02-24T05:58:02.544Z,2.52
2019-02-24T06:02:07.838Z,2.55
2019-02-24T06:06:13.172Z,2.52
2019-02-24T06:10:18.389Z,2.51
2019-02-24T06:14:24.032Z,2.57
2019-02-24T06:23:04.159Z,2.35
2019-02-24T06:27:09.245Z,2.28
2019-02-24T06:31:14.371Z,2.28
2019-02-24T06:35:19.709Z,2.37
2019-02-24T06:39:43.893Z,2.35
2019-02-24T06:43:49.266Z,2.39
2019-02-24T06:47:54.572Z,2.31
2019-02-24T06:51:59.696Z,2.48
2019-02-24T06:56:04.821Z,2.47
2019-02-24T07:00:14.020Z,2.58
2019-02-24T07:04:17.018Z,2.73
2019-02-24T07:08:22.121Z,2.68
2019-02-24T07:12:27.322Z,2.82
2019-02-24T07:16:32.452Z,3.03
2019-02-24T07:20:37.594Z,3.08
2019-02-24T07:24:43.697Z,3.17
2019-02-24T07:28:48.744Z,3.29
2019-02-24T07:32:54.131Z,3.37
2019-02-24T07:36:59.446Z,3.52
2019-02-24T07:41:04.803Z,3.63
2019-02-24T07:45:09.904Z,3.83
2019-02-24T07:49:15.118Z,3.88
2019-02-24T07:53:20.215Z,4.08
2019-02-24T07:57:25.355Z,4.17
2019-02-24T08:01:30.451Z,4.31
2019-02-24T08:05:35.584Z,4.35
2019-02-24T08:09:40.841Z,4.63
2019-02-24T08:14:09.790Z,4.71
2019-02-24T08:18:15.587Z,4.90
2019-02-24T08:22:23.138Z,5.04
2019-02-24T08:26:28.649Z,5.19
2019-02-24T08:30:41.326Z,5.71
2019-02-24T08:34:40.593Z,5.90
2019-02-24T08:38:45.731Z,6.06
2019-02-24T08:42:50.825Z,6.37
2019-02-24T08:46:55.783Z,6.64
2019-02-24T08:51:00.968Z,6.62
2019-02-24T08:55:06.427Z,7.04
2019-02-24T08:59:11.619Z,7.10
2019-02-24T09:03:16.841Z,7.48
2019-02-24T09:07:21.841Z,7.32
2019-02-24T09:11:27.088Z,7.73
2019-02-24T09:15:32.274Z,7.50
2019-02-24T09:19:37.466Z,7.59
2019-02-24T09:23:42.801Z,7.64
2019-02-24T09:27:48.255Z,8.01
2019-02-24T09:31:53.376Z,8.12
2019-02-24T09:36:43.636Z,8.16
2019-02-24T09:41:40.811Z,8.33
2019-02-24T09:45:48.011Z,8.63
2019-02-24T09:49:53.228Z,8.42
2019-02-24T09:53:58.591Z,8.88
2019-02-24T09:58:03.834Z,9.04
2019-02-24T10:02:09.701Z,9.22
2019-02-24T10:06:14.888Z,9.46
2019-02-24T10:10:20.107Z,9.38
2019-02-24T10:14:25.870Z,9.73
2019-02-24T10:18:32.254Z,9.96
2019-02-24T10:22:37.885Z,10.39
2019-02-24T10:26:44.312Z,10.10
2019-02-24T10:30:50.606Z,10.10
2019-02-24T10:34:56.048Z,10.10
2019-02-24T10:39:01.357Z,10.42
2019-02-24T10:43:10.106Z,10.73
2019-02-24T10:47:17.436Z,10.87
2019-02-24T10:51:25.495Z,10.91
2019-02-24T10:55:30.988Z,11.27
2019-02-24T10:59:36.309Z,11.31
2019-02-24T11:03:41.751Z,11.25
2019-02-24T11:07:47.222Z,12.41
2019-02-24T11:11:53.037Z,11.77
2019-02-24T11:16:00.159Z,11.92
2019-02-24T11:20:07.879Z,11.99
2019-02-24T11:24:14.581Z,11.96
2019-02-24T11:28:20.132Z,12.87
2019-02-24T11:32:25.567Z,12.85
2019-02-24T11:36:32.182Z,13.10
2019-02-24T11:40:37.720Z,12.94
2019-02-24T11:44:59.644Z,12.71
2019-02-24T11:49:24.867Z,12.40
2019-02-24T11:53:29.711Z,13.23
2019-02-24T11:57:36.687Z,13.36
2019-02-24T12:06:01.012Z,13.66
2019-02-24T12:10:09.542Z,14.01
2019-02-24T12:14:25.166Z,13.63
2019-02-24T12:18:33.291Z,13.45
2019-02-24T12:22:39.488Z,14.18
2019-02-24T12:26:55.952Z,14.12
2019-02-24T12:30:55.046Z,14.44
2019-02-24T12:35:16.835Z,14.08
2019-02-24T12:39:25.023Z,14.99
2019-02-24T12:43:30.617Z,14.60
2019-02-24T12:47:36.141Z,14.07
2019-02-24T12:52:04.003Z,14.10
2019-02-24T12:56:49.075Z,14.08
2019-02-24T13:01:14.452Z,14.63
2019-02-24T13:05:58.741Z,14.65
2019-02-24T13:10:05.802Z,15.14
2019-02-24T13:14:13.400Z,15.12
2019-02-24T13:18:29.723Z,15.73
2019-02-24T13:22:37.844Z,16.93
2019-02-24T13:26:43.738Z,15.43
2019-02-24T13:30:56.519Z,15.87
2019-02-24T13:35:04.535Z,17.31
2019-02-24T13:39:14.989Z,15.97
2019-02-24T13:43:22.479Z,17.31
2019-02-24T13:47:28.141Z,16.48
2019-02-24T13:57:18.719Z,15.90
2019-02-24T14:01:29.186Z,16.83
2019-02-24T14:05:39.354Z,18.30
2019-02-24T14:09:49.111Z,17.14
2019-02-24T14:13:54.412Z,16.87
2019-02-24T14:18:00.267Z,16.78
2019-02-24T14:22:05.837Z,16.74
2019-02-24T14:26:11.365Z,15.97
2019-02-24T14:30:16.972Z,16.32
2019-02-24T14:34:52.358Z,17.49
2019-02-24T14:38:59.958Z,18.07
2019-02-24T14:43:08.335Z,16.44
2019-02-24T14:47:13.662Z,16.72
2019-02-24T14:51:26.199Z,17.80
2019-02-24T14:55:31.596Z,19.05
2019-02-24T14:59:37.167Z,17.60
2019-02-24T15:03:43.425Z,16.82
2019-02-24T15:07:50.584Z,16.60
2019-02-24T15:11:57.582Z,20.47
2019-02-24T15:16:03.662Z,17.48
2019-02-24T15:20:12.419Z,18.58
2019-02-24T15:24:27.527Z,17.77
2019-02-24T15:28:36.062Z,18.17
2019-02-24T15:33:17.114Z,17.69
2019-02-24T15:37:26.965Z,16.98
2019-02-24T15:41:38.636Z,18.59
2019-02-24T15:45:43.598Z,17.10
2019-02-24T15:49:48.998Z,18.21
2019-02-24T15:53:55.993Z,18.35
2019-02-24T15:58:02.498Z,18.68
2019-02-24T16:02:23.947Z,18.77
2019-02-24T16:06:37.058Z,18.30
2019-02-24T16:10:40.800Z,17.83
2019-02-24T16:14:45.481Z,16.55
2019-02-24T16:24:41.370Z,17.08
2019-02-24T16:28:57.806Z,17.43
2019-02-24T16:33:10.506Z,16.29
2019-02-24T16:37:22.877Z,16.67
2019-02-24T16:41:35.468Z,16.93
2019-02-24T16:45:40.792Z,16.06
2019-02-24T16:49:46.077Z,16.66
2019-02-24T16:53:51.352Z,14.86
2019-02-24T16:57:56.551Z,13.72
2019-02-24T17:02:01.751Z,13.41
2019-02-24T17:06:09.682Z,13.08
2019-02-24T17:10:16.776Z,12.89
2019-02-24T17:14:24.843Z,12.67
2019-02-24T17:18:30.476Z,12.84
2019-02-24T17:22:37.064Z,12.40
2019-02-24T17:26:42.418Z,12.36
2019-02-24T17:30:47.678Z,12.52
2019-02-24T17:34:52.953Z,12.19
2019-02-24T17:38:58.182Z,12.13
2019-02-24T17:43:03.392Z,11.79
2019-02-24T17:47:08.723Z,12.12
2019-02-24T17:51:21.573Z,12.28
2019-02-24T17:55:27.038Z,11.89
2019-02-24T17:59:40.167Z,11.24
2019-02-24T18:03:39.903Z,11.36
2019-02-24T18:07:57.191Z,11.40
2019-02-24T18:12:02.411Z,11.55
2019-02-24T18:16:09.389Z,11.20
2019-02-24T18:20:14.878Z,10.66
2019-02-24T18:24:23.200Z,11.34
2019-02-24T18:28:28.612Z,11.21
2019-02-24T18:32:33.859Z,10.71
2019-02-24T18:36:40.786Z,9.95
2019-02-24T18:40:46.374Z,10.19
2019-02-24T18:44:51.841Z,10.31
2019-02-24T18:48:58.923Z,10.47
2019-02-24T18:53:04.165Z,9.69
2019-02-24T18:57:09.481Z,8.68
2019-02-24T19:01:17.840Z,8.81
2019-02-24T19:05:23.251Z,9.49
2019-02-24T19:09:28.698Z,9.71
2019-02-24T19:13:36.772Z,8.32
2019-02-24T19:17:42.107Z,8.64
2019-02-24T19:21:47.271Z,8.65
2019-02-24T19:25:52.687Z,8.62
2019-02-24T19:29:58.154Z,8.24
2019-02-24T19:34:06.745Z,8.48
2019-02-24T19:38:11.554Z,8.48
2019-02-24T19:42:18.028Z,8.02
2019-02-24T19:46:23.374Z,7.43
2019-02-24T19:50:28.798Z,8.60
2019-02-24T19:54:34.102Z,8.38
2019-02-24T19:58:39.422Z,8.39
2019-02-24T20:02:44.637Z,7.94
2019-02-24T20:06:49.928Z,7.88
2019-02-24T20:10:55.270Z,7.96
2019-02-24T20:15:00.498Z,7.55
2019-02-24T20:19:05.700Z,8.33
2019-02-24T20:23:11.132Z,8.33
2019-02-24T20:27:16.447Z,8.39
2019-02-24T20:31:21.787Z,8.39
2019-02-24T20:35:27.137Z,8.30
2019-02-24T20:39:32.440Z,7.99
2019-02-24T20:43:37.703Z,7.83
2019-02-24T20:47:43.041Z,7.20
2019-02-24T20:51:48.238Z,7.68
2019-02-24T20:55:53.791Z,7.11
2019-02-24T20:59:59.216Z,7.14
2019-02-24T21:04:04.495Z,7.79
2019-02-24T21:08:09.802Z,7.88
2019-02-24T21:12:16.286Z,7.79
2019-02-24T21:16:26.408Z,7.40
2019-02-24T21:20:31.764Z,7.58
2019-02-24T21:24:40.322Z,7.28
2019-02-24T21:28:54.094Z,7.49
2019-02-24T21:33:01.169Z,7.49
2019-02-24T21:37:24.672Z,7.92
2019-02-24T21:41:30.008Z,7.62
2019-02-24T21:45:36.179Z,7.86
2019-02-24T21:49:41.419Z,7.30
2019-02-24T21:53:46.622Z,7.89
2019-02-24T21:57:51.951Z,6.63
2019-02-24T22:01:57.350Z,6.63
2019-02-24T22:06:02.676Z,6.65
2019-02-24T22:10:09.114Z,6.53
2019-02-24T22:14:16.621Z,6.82
2019-02-24T22:18:24.089Z,7.09
2019-02-24T22:22:29.768Z,7.13
2019-02-24T22:32:04.344Z,6.41
2019-02-24T22:36:09.742Z,6.21
2019-02-24T22:40:16.825Z,6.46
2019-02-24T22:44:23.850Z,6.78
2019-02-24T22:48:30.405Z,7.08
2019-02-24T22:52:36.166Z,7.33
2019-02-24T22:56:45.115Z,7.62
2019-02-24T23:01:16.452Z,7.65
2019-02-24T23:05:22.191Z,7.62
2019-02-24T23:09:27.547Z,7.27
2019-02-24T23:13:32.957Z,7.63
2019-02-24T23:17:39.422Z,7.78
2019-02-24T23:21:44.653Z,7.75
2019-02-24T23:25:49.990Z,7.61
2019-02-24T23:29:55.377Z,7.68
2019-02-24T23:34:02.994Z,7.54
2019-02-24T23:38:14.248Z,7.01
2019-02-24T23:42:19.647Z,6.89
2019-02-24T23:46:24.763Z,7.09
2019-02-24T23:50:30.019Z,6.57
2019-02-24T23:54:37.663Z,6.46
2019-02-24T23:58:47.307Z,6.53
